sensor_id;sensor_type;location;lat;lon;timestamp;P1;durP1;ratioP1;P2;durP2;ratioP2
13698;SDS011;6921;53.642;9.956;2022-12-11T00:00:32;8.83;;;5.90;;
13698;SDS011;6921;53.642;9.956;2022-12-11T00:02:35;10.40;;;6.07;;
13698;SDS011;6921;53.642;9.956;2022-12-11T00:04:39;9.80;;;5.73;;
13698;SDS011;6921;53.642;9.956;2022-12-11T00:06:42;9.17;;;5.63;;
13698;SDS011;6921;53.642;9.956;2022-12-11T00:08:45;9.03;;;5.30;;
13698;SDS011;6921;53.642;9.956;2022-12-11T00:10:49;10.23;;;6.20;;
13698;SDS011;6921;53.642;9.956;2022-12-11T00:12:52;9.30;;;5.63;;
13698;SDS011;6921;53.642;9.956;2022-12-11T00:14:56;9.43;;;5.93;;
13698;SDS011;6921;53.642;9.956;2022-12-11T00:17:00;9.87;;;6.40;;
13698;SDS011;6921;53.642;9.956;2022-12-11T00:19:03;11.47;;;6.13;;
13698;SDS011;6921;53.642;9.956;2022-12-11T00:21:07;8.73;;;5.60;;
13698;SDS011;6921;53.642;9.956;2022-12-11T00:23:12;11.00;;;6.30;;
13698;SDS011;6921;53.642;9.956;2022-12-11T00:25:15;10.03;;;6.00;;
13698;SDS011;6921;53.642;9.956;2022-12-11T00:27:18;9.83;;;5.70;;
13698;SDS011;6921;53.642;9.956;2022-12-11T00:29:22;10.70;;;6.13;;
13698;SDS011;6921;53.642;9.956;2022-12-11T00:31:26;8.23;;;5.47;;
13698;SDS011;6921;53.642;9.956;2022-12-11T00:33:30;10.30;;;6.37;;
13698;SDS011;6921;53.642;9.956;2022-12-11T00:35:36;9.83;;;5.43;;
13698;SDS011;6921;53.642;9.956;2022-12-11T00:37:39;9.43;;;5.77;;
13698;SDS011;6921;53.642;9.956;2022-12-11T00:39:43;8.83;;;5.57;;
13698;SDS011;6921;53.642;9.956;2022-12-11T00:41:46;10.73;;;6.50;;
13698;SDS011;6921;53.642;9.956;2022-12-11T00:43:49;10.27;;;5.80;;
13698;SDS011;6921;53.642;9.956;2022-12-11T00:45:52;10.30;;;6.07;;
13698;SDS011;6921;53.642;9.956;2022-12-11T00:47:57;9.93;;;6.17;;
13698;SDS011;6921;53.642;9.956;2022-12-11T00:50:00;10.40;;;6.40;;
13698;SDS011;6921;53.642;9.956;2022-12-11T00:52:04;10.43;;;6.23;;
13698;SDS011;6921;53.642;9.956;2022-12-11T00:54:07;7.77;;;5.43;;
13698;SDS011;6921;53.642;9.956;2022-12-11T00:56:11;9.73;;;6.30;;
13698;SDS011;6921;53.642;9.956;2022-12-11T00:58:15;10.53;;;6.07;;
13698;SDS011;6921;53.642;9.956;2022-12-11T01:00:18;8.20;;;6.17;;
13698;SDS011;6921;53.642;9.956;2022-12-11T01:02:23;8.27;;;5.47;;
13698;SDS011;6921;53.642;9.956;2022-12-11T01:04:27;9.43;;;5.73;;
13698;SDS011;6921;53.642;9.956;2022-12-11T01:06:31;8.67;;;5.13;;
13698;SDS011;6921;53.642;9.956;2022-12-11T01:08:34;8.67;;;5.57;;
13698;SDS011;6921;53.642;9.956;2022-12-11T01:10:39;10.90;;;6.63;;
13698;SDS011;6921;53.642;9.956;2022-12-11T01:12:41;8.63;;;5.70;;
13698;SDS011;6921;53.642;9.956;2022-12-11T01:14:44;8.07;;;5.53;;
13698;SDS011;6921;53.642;9.956;2022-12-11T01:16:47;7.73;;;5.50;;
13698;SDS011;6921;53.642;9.956;2022-12-11T01:18:51;12.67;;;6.37;;
13698;SDS011;6921;53.642;9.956;2022-12-11T01:20:56;9.63;;;6.13;;
13698;SDS011;6921;53.642;9.956;2022-12-11T01:22:59;10.53;;;5.63;;
13698;SDS011;6921;53.642;9.956;2022-12-11T01:25:03;9.23;;;5.77;;
13698;SDS011;6921;53.642;9.956;2022-12-11T01:27:06;9.43;;;5.07;;
13698;SDS011;6921;53.642;9.956;2022-12-11T01:29:09;10.63;;;5.53;;
13698;SDS011;6921;53.642;9.956;2022-12-11T01:31:13;9.43;;;6.07;;
13698;SDS011;6921;53.642;9.956;2022-12-11T01:33:17;9.90;;;5.93;;
13698;SDS011;6921;53.642;9.956;2022-12-11T01:35:20;9.03;;;5.43;;
13698;SDS011;6921;53.642;9.956;2022-12-11T01:37:25;11.67;;;5.93;;
13698;SDS011;6921;53.642;9.956;2022-12-11T01:39:28;11.73;;;6.23;;
13698;SDS011;6921;53.642;9.956;2022-12-11T01:41:32;11.10;;;5.77;;
13698;SDS011;6921;53.642;9.956;2022-12-11T01:45:53;10.47;;;6.03;;
13698;SDS011;6921;53.642;9.956;2022-12-11T01:47:58;10.50;;;6.07;;
13698;SDS011;6921;53.642;9.956;2022-12-11T01:50:02;10.40;;;6.13;;
13698;SDS011;6921;53.642;9.956;2022-12-11T01:52:06;10.30;;;6.50;;
13698;SDS011;6921;53.642;9.956;2022-12-11T01:54:12;9.63;;;6.27;;
13698;SDS011;6921;53.642;9.956;2022-12-11T01:56:16;11.33;;;6.73;;
13698;SDS011;6921;53.642;9.956;2022-12-11T01:58:23;10.87;;;6.83;;
13698;SDS011;6921;53.642;9.956;2022-12-11T02:00:27;10.33;;;6.20;;
13698;SDS011;6921;53.642;9.956;2022-12-11T02:02:31;10.00;;;5.87;;
13698;SDS011;6921;53.642;9.956;2022-12-11T02:04:35;12.23;;;6.57;;
13698;SDS011;6921;53.642;9.956;2022-12-11T02:06:40;15.00;;;6.40;;
13698;SDS011;6921;53.642;9.956;2022-12-11T02:08:44;13.13;;;6.63;;
13698;SDS011;6921;53.642;9.956;2022-12-11T02:10:55;8.60;;;5.50;;
13698;SDS011;6921;53.642;9.956;2022-12-11T02:13:03;7.57;;;5.57;;
13698;SDS011;6921;53.642;9.956;2022-12-11T02:15:11;10.23;;;5.97;;
13698;SDS011;6921;53.642;9.956;2022-12-11T02:17:16;8.60;;;5.87;;
13698;SDS011;6921;53.642;9.956;2022-12-11T02:19:29;9.70;;;5.87;;
13698;SDS011;6921;53.642;9.956;2022-12-11T02:21:34;9.83;;;5.77;;
13698;SDS011;6921;53.642;9.956;2022-12-11T02:26:15;11.30;;;6.53;;
13698;SDS011;6921;53.642;9.956;2022-12-11T02:28:24;10.73;;;6.13;;
13698;SDS011;6921;53.642;9.956;2022-12-11T02:30:27;9.73;;;6.17;;
13698;SDS011;6921;53.642;9.956;2022-12-11T02:32:32;10.03;;;6.40;;
13698;SDS011;6921;53.642;9.956;2022-12-11T02:34:38;9.37;;;5.63;;
13698;SDS011;6921;53.642;9.956;2022-12-11T02:36:42;9.57;;;5.53;;
13698;SDS011;6921;53.642;9.956;2022-12-11T02:38:47;10.53;;;5.97;;
13698;SDS011;6921;53.642;9.956;2022-12-11T02:40:52;9.63;;;6.00;;
13698;SDS011;6921;53.642;9.956;2022-12-11T02:42:57;9.20;;;6.33;;
13698;SDS011;6921;53.642;9.956;2022-12-11T02:45:02;11.10;;;6.83;;
13698;SDS011;6921;53.642;9.956;2022-12-11T02:47:07;10.17;;;6.47;;
13698;SDS011;6921;53.642;9.956;2022-12-11T02:49:13;10.27;;;5.70;;
13698;SDS011;6921;53.642;9.956;2022-12-11T02:51:18;11.30;;;6.07;;
13698;SDS011;6921;53.642;9.956;2022-12-11T02:53:25;12.50;;;6.73;;
13698;SDS011;6921;53.642;9.956;2022-12-11T02:55:29;10.13;;;6.17;;
13698;SDS011;6921;53.642;9.956;2022-12-11T02:57:40;12.67;;;7.03;;
13698;SDS011;6921;53.642;9.956;2022-12-11T02:59:45;10.30;;;6.30;;
13698;SDS011;6921;53.642;9.956;2022-12-11T03:01:49;9.30;;;5.80;;
13698;SDS011;6921;53.642;9.956;2022-12-11T03:03:53;11.90;;;7.03;;
13698;SDS011;6921;53.642;9.956;2022-12-11T03:05:56;11.30;;;6.57;;
13698;SDS011;6921;53.642;9.956;2022-12-11T03:08:00;10.03;;;6.30;;
13698;SDS011;6921;53.642;9.956;2022-12-11T03:10:04;11.53;;;6.33;;
13698;SDS011;6921;53.642;9.956;2022-12-11T03:12:08;11.27;;;6.23;;
13698;SDS011;6921;53.642;9.956;2022-12-11T03:14:12;11.93;;;7.13;;
13698;SDS011;6921;53.642;9.956;2022-12-11T03:16:17;10.93;;;6.77;;
13698;SDS011;6921;53.642;9.956;2022-12-11T03:18:25;12.07;;;7.30;;
13698;SDS011;6921;53.642;9.956;2022-12-11T03:20:34;11.90;;;7.00;;
13698;SDS011;6921;53.642;9.956;2022-12-11T03:22:40;11.13;;;7.07;;
13698;SDS011;6921;53.642;9.956;2022-12-11T03:24:46;10.27;;;6.73;;
13698;SDS011;6921;53.642;9.956;2022-12-11T03:26:53;12.27;;;6.83;;
13698;SDS011;6921;53.642;9.956;2022-12-11T03:28:59;10.53;;;6.90;;
13698;SDS011;6921;53.642;9.956;2022-12-11T03:31:06;10.43;;;6.13;;
13698;SDS011;6921;53.642;9.956;2022-12-11T03:33:12;12.30;;;7.50;;
13698;SDS011;6921;53.642;9.956;2022-12-11T03:35:19;11.90;;;6.77;;
13698;SDS011;6921;53.642;9.956;2022-12-11T03:37:23;13.40;;;6.83;;
13698;SDS011;6921;53.642;9.956;2022-12-11T03:39:28;12.03;;;6.33;;
13698;SDS011;6921;53.642;9.956;2022-12-11T03:41:32;11.03;;;7.00;;
13698;SDS011;6921;53.642;9.956;2022-12-11T03:43:37;9.83;;;6.87;;
13698;SDS011;6921;53.642;9.956;2022-12-11T03:45:40;11.97;;;6.97;;
13698;SDS011;6921;53.642;9.956;2022-12-11T03:47:44;10.50;;;7.00;;
13698;SDS011;6921;53.642;9.956;2022-12-11T03:49:48;11.43;;;7.07;;
13698;SDS011;6921;53.642;9.956;2022-12-11T03:51:55;14.90;;;7.73;;
13698;SDS011;6921;53.642;9.956;2022-12-11T03:53:58;10.43;;;6.67;;
13698;SDS011;6921;53.642;9.956;2022-12-11T03:56:02;11.00;;;7.37;;
13698;SDS011;6921;53.642;9.956;2022-12-11T03:58:06;13.20;;;7.60;;
13698;SDS011;6921;53.642;9.956;2022-12-11T04:00:11;13.63;;;7.70;;
13698;SDS011;6921;53.642;9.956;2022-12-11T04:02:14;14.20;;;8.50;;
13698;SDS011;6921;53.642;9.956;2022-12-11T04:04:20;13.97;;;7.80;;
13698;SDS011;6921;53.642;9.956;2022-12-11T04:06:24;14.97;;;7.20;;
13698;SDS011;6921;53.642;9.956;2022-12-11T04:08:28;12.40;;;7.50;;
13698;SDS011;6921;53.642;9.956;2022-12-11T04:10:31;12.17;;;7.20;;
13698;SDS011;6921;53.642;9.956;2022-12-11T04:12:35;14.73;;;7.97;;
13698;SDS011;6921;53.642;9.956;2022-12-11T04:14:38;16.70;;;9.10;;
13698;SDS011;6921;53.642;9.956;2022-12-11T04:16:59;15.93;;;7.83;;
13698;SDS011;6921;53.642;9.956;2022-12-11T04:19:03;16.77;;;7.90;;
13698;SDS011;6921;53.642;9.956;2022-12-11T04:21:24;12.60;;;8.27;;
13698;SDS011;6921;53.642;9.956;2022-12-11T04:23:45;12.13;;;7.47;;
13698;SDS011;6921;53.642;9.956;2022-12-11T04:26:07;14.03;;;7.77;;
13698;SDS011;6921;53.642;9.956;2022-12-11T04:28:11;14.77;;;7.87;;
13698;SDS011;6921;53.642;9.956;2022-12-11T04:30:15;15.87;;;8.40;;
13698;SDS011;6921;53.642;9.956;2022-12-11T04:32:19;13.70;;;8.10;;
13698;SDS011;6921;53.642;9.956;2022-12-11T04:34:22;14.53;;;7.97;;
13698;SDS011;6921;53.642;9.956;2022-12-11T04:36:25;12.60;;;7.77;;
13698;SDS011;6921;53.642;9.956;2022-12-11T04:38:29;13.63;;;8.17;;
13698;SDS011;6921;53.642;9.956;2022-12-11T04:40:34;15.73;;;8.23;;
13698;SDS011;6921;53.642;9.956;2022-12-11T04:42:37;14.13;;;7.97;;
13698;SDS011;6921;53.642;9.956;2022-12-11T04:44:40;12.43;;;7.90;;
13698;SDS011;6921;53.642;9.956;2022-12-11T04:46:43;12.73;;;7.43;;
13698;SDS011;6921;53.642;9.956;2022-12-11T04:48:47;14.37;;;8.30;;
13698;SDS011;6921;53.642;9.956;2022-12-11T04:50:57;15.93;;;9.17;;
13698;SDS011;6921;53.642;9.956;2022-12-11T04:53:00;14.03;;;8.20;;
13698;SDS011;6921;53.642;9.956;2022-12-11T04:55:03;14.23;;;8.20;;
13698;SDS011;6921;53.642;9.956;2022-12-11T04:57:08;15.87;;;8.40;;
13698;SDS011;6921;53.642;9.956;2022-12-11T04:59:12;12.27;;;7.87;;
13698;SDS011;6921;53.642;9.956;2022-12-11T05:01:15;11.80;;;8.07;;
13698;SDS011;6921;53.642;9.956;2022-12-11T05:03:19;11.70;;;7.17;;
13698;SDS011;6921;53.642;9.956;2022-12-11T05:05:22;13.80;;;8.50;;
13698;SDS011;6921;53.642;9.956;2022-12-11T05:07:26;15.13;;;8.23;;
13698;SDS011;6921;53.642;9.956;2022-12-11T05:09:29;15.33;;;8.13;;
13698;SDS011;6921;53.642;9.956;2022-12-11T05:11:32;13.17;;;8.30;;
13698;SDS011;6921;53.642;9.956;2022-12-11T05:13:37;13.07;;;7.70;;
13698;SDS011;6921;53.642;9.956;2022-12-11T05:15:41;14.13;;;8.57;;
13698;SDS011;6921;53.642;9.956;2022-12-11T05:17:44;14.93;;;8.40;;
13698;SDS011;6921;53.642;9.956;2022-12-11T05:19:48;15.90;;;8.80;;
13698;SDS011;6921;53.642;9.956;2022-12-11T05:21:51;11.60;;;7.43;;
13698;SDS011;6921;53.642;9.956;2022-12-11T05:23:55;14.13;;;8.33;;
13698;SDS011;6921;53.642;9.956;2022-12-11T05:25:58;13.73;;;8.67;;
13698;SDS011;6921;53.642;9.956;2022-12-11T05:28:02;14.57;;;8.40;;
13698;SDS011;6921;53.642;9.956;2022-12-11T05:30:07;14.70;;;8.50;;
13698;SDS011;6921;53.642;9.956;2022-12-11T05:32:11;15.50;;;8.17;;
13698;SDS011;6921;53.642;9.956;2022-12-11T05:34:14;13.20;;;8.43;;
13698;SDS011;6921;53.642;9.956;2022-12-11T05:36:18;15.53;;;9.60;;
13698;SDS011;6921;53.642;9.956;2022-12-11T05:38:22;16.13;;;9.33;;
13698;SDS011;6921;53.642;9.956;2022-12-11T05:40:25;17.47;;;9.50;;
13698;SDS011;6921;53.642;9.956;2022-12-11T05:42:29;16.97;;;9.27;;
13698;SDS011;6921;53.642;9.956;2022-12-11T05:44:32;14.47;;;8.80;;
13698;SDS011;6921;53.642;9.956;2022-12-11T05:46:37;15.17;;;9.10;;
13698;SDS011;6921;53.642;9.956;2022-12-11T05:48:41;16.33;;;9.47;;
13698;SDS011;6921;53.642;9.956;2022-12-11T05:50:54;13.77;;;8.43;;
13698;SDS011;6921;53.642;9.956;2022-12-11T05:52:57;15.87;;;9.00;;
13698;SDS011;6921;53.642;9.956;2022-12-11T05:55:01;15.40;;;8.90;;
13698;SDS011;6921;53.642;9.956;2022-12-11T05:57:05;14.87;;;9.83;;
13698;SDS011;6921;53.642;9.956;2022-12-11T05:59:08;16.40;;;9.57;;
13698;SDS011;6921;53.642;9.956;2022-12-11T06:01:12;17.27;;;9.20;;
13698;SDS011;6921;53.642;9.956;2022-12-11T06:03:17;15.53;;;8.77;;
13698;SDS011;6921;53.642;9.956;2022-12-11T06:05:21;16.93;;;9.30;;
13698;SDS011;6921;53.642;9.956;2022-12-11T06:07:24;16.30;;;10.10;;
13698;SDS011;6921;53.642;9.956;2022-12-11T06:09:27;16.37;;;8.73;;
13698;SDS011;6921;53.642;9.956;2022-12-11T06:11:31;14.97;;;8.83;;
13698;SDS011;6921;53.642;9.956;2022-12-11T06:13:34;18.17;;;10.27;;
13698;SDS011;6921;53.642;9.956;2022-12-11T06:15:37;13.37;;;9.57;;
13698;SDS011;6921;53.642;9.956;2022-12-11T06:17:41;16.90;;;10.20;;
13698;SDS011;6921;53.642;9.956;2022-12-11T06:19:46;17.93;;;10.47;;
13698;SDS011;6921;53.642;9.956;2022-12-11T06:21:49;17.63;;;10.03;;
13698;SDS011;6921;53.642;9.956;2022-12-11T06:23:53;16.20;;;10.07;;
13698;SDS011;6921;53.642;9.956;2022-12-11T06:25:56;17.60;;;10.30;;
13698;SDS011;6921;53.642;9.956;2022-12-11T06:28:00;17.73;;;10.27;;
13698;SDS011;6921;53.642;9.956;2022-12-11T06:30:03;17.60;;;10.83;;
13698;SDS011;6921;53.642;9.956;2022-12-11T06:32:07;18.10;;;10.97;;
13698;SDS011;6921;53.642;9.956;2022-12-11T06:34:10;19.40;;;11.20;;
13698;SDS011;6921;53.642;9.956;2022-12-11T06:36:16;19.43;;;11.40;;
13698;SDS011;6921;53.642;9.956;2022-12-11T06:38:20;21.80;;;10.90;;
13698;SDS011;6921;53.642;9.956;2022-12-11T06:40:23;18.07;;;11.07;;
13698;SDS011;6921;53.642;9.956;2022-12-11T06:42:27;18.70;;;11.03;;
13698;SDS011;6921;53.642;9.956;2022-12-11T06:44:31;16.33;;;10.57;;
13698;SDS011;6921;53.642;9.956;2022-12-11T06:46:34;18.60;;;10.47;;
13698;SDS011;6921;53.642;9.956;2022-12-11T06:48:37;20.23;;;11.30;;
13698;SDS011;6921;53.642;9.956;2022-12-11T06:50:42;18.07;;;9.93;;
13698;SDS011;6921;53.642;9.956;2022-12-11T06:52:46;22.00;;;10.70;;
13698;SDS011;6921;53.642;9.956;2022-12-11T06:54:50;15.53;;;10.07;;
13698;SDS011;6921;53.642;9.956;2022-12-11T06:56:53;18.27;;;10.20;;
13698;SDS011;6921;53.642;9.956;2022-12-11T06:58:56;18.40;;;10.93;;
13698;SDS011;6921;53.642;9.956;2022-12-11T07:01:11;20.07;;;11.33;;
13698;SDS011;6921;53.642;9.956;2022-12-11T07:03:15;17.77;;;10.47;;
13698;SDS011;6921;53.642;9.956;2022-12-11T07:05:18;17.70;;;10.23;;
13698;SDS011;6921;53.642;9.956;2022-12-11T07:07:22;18.33;;;11.00;;
13698;SDS011;6921;53.642;9.956;2022-12-11T07:09:26;21.23;;;10.17;;
13698;SDS011;6921;53.642;9.956;2022-12-11T07:11:30;20.83;;;11.57;;
13698;SDS011;6921;53.642;9.956;2022-12-11T07:13:33;18.63;;;9.70;;
13698;SDS011;6921;53.642;9.956;2022-12-11T07:15:36;16.53;;;9.57;;
13698;SDS011;6921;53.642;9.956;2022-12-11T07:17:40;19.73;;;11.60;;
13698;SDS011;6921;53.642;9.956;2022-12-11T07:19:44;20.63;;;11.23;;
13698;SDS011;6921;53.642;9.956;2022-12-11T07:21:47;20.33;;;10.97;;
13698;SDS011;6921;53.642;9.956;2022-12-11T07:23:50;20.77;;;11.87;;
13698;SDS011;6921;53.642;9.956;2022-12-11T07:25:55;20.27;;;11.53;;
13698;SDS011;6921;53.642;9.956;2022-12-11T07:27:58;20.43;;;11.53;;
13698;SDS011;6921;53.642;9.956;2022-12-11T07:30:02;23.47;;;12.57;;
13698;SDS011;6921;53.642;9.956;2022-12-11T07:32:05;20.27;;;12.57;;
13698;SDS011;6921;53.642;9.956;2022-12-11T07:34:12;22.27;;;12.07;;
13698;SDS011;6921;53.642;9.956;2022-12-11T07:36:15;22.43;;;11.83;;
13698;SDS011;6921;53.642;9.956;2022-12-11T07:38:18;22.93;;;12.20;;
13698;SDS011;6921;53.642;9.956;2022-12-11T07:40:21;24.03;;;12.60;;
13698;SDS011;6921;53.642;9.956;2022-12-11T07:42:26;23.37;;;13.47;;
13698;SDS011;6921;53.642;9.956;2022-12-11T07:44:30;24.93;;;12.53;;
13698;SDS011;6921;53.642;9.956;2022-12-11T07:46:33;23.50;;;13.23;;
13698;SDS011;6921;53.642;9.956;2022-12-11T07:48:37;23.47;;;12.63;;
13698;SDS011;6921;53.642;9.956;2022-12-11T07:50:40;25.10;;;13.07;;
13698;SDS011;6921;53.642;9.956;2022-12-11T07:52:43;23.40;;;11.40;;
13698;SDS011;6921;53.642;9.956;2022-12-11T07:54:47;23.97;;;12.27;;
13698;SDS011;6921;53.642;9.956;2022-12-11T07:56:51;20.90;;;11.53;;
13698;SDS011;6921;53.642;9.956;2022-12-11T07:58:57;23.10;;;11.73;;
13698;SDS011;6921;53.642;9.956;2022-12-11T08:01:01;20.50;;;11.63;;
13698;SDS011;6921;53.642;9.956;2022-12-11T08:03:04;22.87;;;11.80;;
13698;SDS011;6921;53.642;9.956;2022-12-11T08:05:07;22.27;;;10.87;;
13698;SDS011;6921;53.642;9.956;2022-12-11T08:07:12;21.90;;;11.57;;
13698;SDS011;6921;53.642;9.956;2022-12-11T08:09:15;23.27;;;13.00;;
13698;SDS011;6921;53.642;9.956;2022-12-11T08:11:23;22.50;;;11.57;;
13698;SDS011;6921;53.642;9.956;2022-12-11T08:13:26;31.00;;;12.33;;
13698;SDS011;6921;53.642;9.956;2022-12-11T08:15:31;26.23;;;12.27;;
13698;SDS011;6921;53.642;9.956;2022-12-11T08:17:34;23.07;;;11.13;;
13698;SDS011;6921;53.642;9.956;2022-12-11T08:19:40;22.90;;;12.40;;
13698;SDS011;6921;53.642;9.956;2022-12-11T08:21:43;24.13;;;12.80;;
13698;SDS011;6921;53.642;9.956;2022-12-11T08:23:47;25.23;;;12.53;;
13698;SDS011;6921;53.642;9.956;2022-12-11T08:25:50;24.70;;;12.07;;
13698;SDS011;6921;53.642;9.956;2022-12-11T08:27:54;22.33;;;12.87;;
13698;SDS011;6921;53.642;9.956;2022-12-11T08:29:57;27.37;;;12.57;;
13698;SDS011;6921;53.642;9.956;2022-12-11T08:32:02;25.47;;;12.90;;
13698;SDS011;6921;53.642;9.956;2022-12-11T08:34:12;22.30;;;11.90;;
13698;SDS011;6921;53.642;9.956;2022-12-11T08:36:16;23.37;;;12.87;;
13698;SDS011;6921;53.642;9.956;2022-12-11T08:38:20;23.63;;;11.87;;
13698;SDS011;6921;53.642;9.956;2022-12-11T08:40:25;23.07;;;12.77;;
13698;SDS011;6921;53.642;9.956;2022-12-11T08:42:29;24.27;;;13.17;;
13698;SDS011;6921;53.642;9.956;2022-12-11T08:44:32;23.80;;;12.83;;
13698;SDS011;6921;53.642;9.956;2022-12-11T08:46:35;26.43;;;12.90;;
13698;SDS011;6921;53.642;9.956;2022-12-11T08:48:41;28.13;;;14.00;;
13698;SDS011;6921;53.642;9.956;2022-12-11T08:50:44;26.73;;;13.33;;
13698;SDS011;6921;53.642;9.956;2022-12-11T08:52:47;26.93;;;13.23;;
13698;SDS011;6921;53.642;9.956;2022-12-11T08:54:51;24.93;;;13.07;;
13698;SDS011;6921;53.642;9.956;2022-12-11T08:56:54;28.67;;;13.60;;
13698;SDS011;6921;53.642;9.956;2022-12-11T08:58:59;28.83;;;14.07;;
13698;SDS011;6921;53.642;9.956;2022-12-11T09:01:04;24.73;;;13.13;;
13698;SDS011;6921;53.642;9.956;2022-12-11T09:03:08;24.80;;;13.30;;
13698;SDS011;6921;53.642;9.956;2022-12-11T09:05:14;27.83;;;13.03;;
13698;SDS011;6921;53.642;9.956;2022-12-11T09:07:18;26.67;;;13.77;;
13698;SDS011;6921;53.642;9.956;2022-12-11T09:09:21;24.60;;;12.77;;
13698;SDS011;6921;53.642;9.956;2022-12-11T09:11:25;22.83;;;12.53;;
13698;SDS011;6921;53.642;9.956;2022-12-11T09:13:29;24.57;;;11.80;;
13698;SDS011;6921;53.642;9.956;2022-12-11T09:15:32;25.13;;;13.20;;
13698;SDS011;6921;53.642;9.956;2022-12-11T09:17:36;24.33;;;13.50;;
13698;SDS011;6921;53.642;9.956;2022-12-11T09:19:40;23.93;;;12.63;;
13698;SDS011;6921;53.642;9.956;2022-12-11T09:21:45;23.30;;;13.73;;
13698;SDS011;6921;53.642;9.956;2022-12-11T09:23:48;24.07;;;12.93;;
13698;SDS011;6921;53.642;9.956;2022-12-11T09:25:51;25.10;;;12.80;;
13698;SDS011;6921;53.642;9.956;2022-12-11T09:27:54;22.73;;;11.53;;
13698;SDS011;6921;53.642;9.956;2022-12-11T09:30:00;20.60;;;11.67;;
13698;SDS011;6921;53.642;9.956;2022-12-11T09:32:03;21.03;;;11.87;;
13698;SDS011;6921;53.642;9.956;2022-12-11T09:34:10;27.10;;;12.87;;
13698;SDS011;6921;53.642;9.956;2022-12-11T09:36:13;22.67;;;12.90;;
13698;SDS011;6921;53.642;9.956;2022-12-11T09:38:17;21.73;;;11.97;;
13698;SDS011;6921;53.642;9.956;2022-12-11T09:40:21;24.63;;;13.27;;
13698;SDS011;6921;53.642;9.956;2022-12-11T09:42:25;26.70;;;12.77;;
13698;SDS011;6921;53.642;9.956;2022-12-11T09:44:33;22.30;;;12.27;;
13698;SDS011;6921;53.642;9.956;2022-12-11T09:46:41;23.73;;;11.93;;
13698;SDS011;6921;53.642;9.956;2022-12-11T09:48:46;20.00;;;11.13;;
13698;SDS011;6921;53.642;9.956;2022-12-11T09:50:50;20.27;;;11.20;;
13698;SDS011;6921;53.642;9.956;2022-12-11T09:52:57;17.23;;;11.00;;
13698;SDS011;6921;53.642;9.956;2022-12-11T09:55:11;27.93;;;13.20;;
13698;SDS011;6921;53.642;9.956;2022-12-11T09:57:19;20.83;;;10.90;;
13698;SDS011;6921;53.642;9.956;2022-12-11T09:59:26;20.43;;;11.57;;
13698;SDS011;6921;53.642;9.956;2022-12-11T10:01:34;20.17;;;10.83;;
13698;SDS011;6921;53.642;9.956;2022-12-11T10:03:44;17.93;;;10.57;;
13698;SDS011;6921;53.642;9.956;2022-12-11T10:05:51;19.87;;;10.27;;
13698;SDS011;6921;53.642;9.956;2022-12-11T10:08:04;24.13;;;11.03;;
13698;SDS011;6921;53.642;9.956;2022-12-11T10:10:15;25.77;;;15.60;;
13698;SDS011;6921;53.642;9.956;2022-12-11T10:12:26;21.83;;;12.87;;
13698;SDS011;6921;53.642;9.956;2022-12-11T10:14:36;26.40;;;18.00;;
13698;SDS011;6921;53.642;9.956;2022-12-11T10:16:43;22.67;;;14.13;;
13698;SDS011;6921;53.642;9.956;2022-12-11T10:18:47;17.90;;;9.87;;
13698;SDS011;6921;53.642;9.956;2022-12-11T10:20:51;16.20;;;10.13;;
13698;SDS011;6921;53.642;9.956;2022-12-11T10:22:54;17.50;;;9.97;;
13698;SDS011;6921;53.642;9.956;2022-12-11T10:24:58;16.83;;;10.10;;
13698;SDS011;6921;53.642;9.956;2022-12-11T10:27:14;18.17;;;10.53;;
13698;SDS011;6921;53.642;9.956;2022-12-11T10:29:19;18.73;;;10.83;;
13698;SDS011;6921;53.642;9.956;2022-12-11T10:31:23;14.97;;;9.50;;
13698;SDS011;6921;53.642;9.956;2022-12-11T10:33:30;16.70;;;9.77;;
13698;SDS011;6921;53.642;9.956;2022-12-11T10:35:37;16.70;;;9.43;;
13698;SDS011;6921;53.642;9.956;2022-12-11T10:37:41;15.13;;;9.93;;
13698;SDS011;6921;53.642;9.956;2022-12-11T10:39:44;15.40;;;9.70;;
13698;SDS011;6921;53.642;9.956;2022-12-11T10:41:48;17.70;;;10.07;;
13698;SDS011;6921;53.642;9.956;2022-12-11T10:43:53;13.77;;;9.13;;
13698;SDS011;6921;53.642;9.956;2022-12-11T10:45:56;14.07;;;9.30;;
13698;SDS011;6921;53.642;9.956;2022-12-11T10:48:03;16.23;;;9.87;;
13698;SDS011;6921;53.642;9.956;2022-12-11T10:50:20;16.20;;;9.30;;
13698;SDS011;6921;53.642;9.956;2022-12-11T10:52:24;15.90;;;9.53;;
13698;SDS011;6921;53.642;9.956;2022-12-11T10:54:29;15.93;;;9.73;;
13698;SDS011;6921;53.642;9.956;2022-12-11T10:56:33;15.87;;;9.63;;
13698;SDS011;6921;53.642;9.956;2022-12-11T10:58:39;16.20;;;9.93;;
13698;SDS011;6921;53.642;9.956;2022-12-11T11:00:58;15.40;;;10.07;;
13698;SDS011;6921;53.642;9.956;2022-12-11T11:03:02;15.37;;;10.27;;
13698;SDS011;6921;53.642;9.956;2022-12-11T11:05:10;15.80;;;10.10;;
13698;SDS011;6921;53.642;9.956;2022-12-11T11:07:15;15.30;;;10.73;;
13698;SDS011;6921;53.642;9.956;2022-12-11T11:09:27;14.80;;;9.57;;
13698;SDS011;6921;53.642;9.956;2022-12-11T11:11:31;13.37;;;9.60;;
13698;SDS011;6921;53.642;9.956;2022-12-11T11:13:36;15.37;;;10.07;;
13698;SDS011;6921;53.642;9.956;2022-12-11T11:15:40;14.67;;;9.87;;
13698;SDS011;6921;53.642;9.956;2022-12-11T11:17:46;15.30;;;9.57;;
13698;SDS011;6921;53.642;9.956;2022-12-11T11:19:55;15.03;;;8.93;;
13698;SDS011;6921;53.642;9.956;2022-12-11T11:22:01;14.83;;;8.80;;
13698;SDS011;6921;53.642;9.956;2022-12-11T11:24:18;13.13;;;9.07;;
13698;SDS011;6921;53.642;9.956;2022-12-11T11:26:23;13.13;;;8.60;;
13698;SDS011;6921;53.642;9.956;2022-12-11T11:28:46;15.23;;;9.60;;
13698;SDS011;6921;53.642;9.956;2022-12-11T11:30:54;12.87;;;9.07;;
13698;SDS011;6921;53.642;9.956;2022-12-11T11:33:01;14.90;;;9.87;;
13698;SDS011;6921;53.642;9.956;2022-12-11T11:35:15;14.20;;;9.03;;
13698;SDS011;6921;53.642;9.956;2022-12-11T11:37:24;17.37;;;10.17;;
13698;SDS011;6921;53.642;9.956;2022-12-11T11:39:29;15.37;;;9.70;;
13698;SDS011;6921;53.642;9.956;2022-12-11T11:41:34;12.97;;;9.20;;
13698;SDS011;6921;53.642;9.956;2022-12-11T11:43:41;12.47;;;9.13;;
13698;SDS011;6921;53.642;9.956;2022-12-11T11:45:45;15.13;;;10.40;;
13698;SDS011;6921;53.642;9.956;2022-12-11T11:47:54;15.67;;;11.07;;
13698;SDS011;6921;53.642;9.956;2022-12-11T11:50:05;13.93;;;9.97;;
13698;SDS011;6921;53.642;9.956;2022-12-11T11:52:11;14.60;;;9.90;;
13698;SDS011;6921;53.642;9.956;2022-12-11T11:54:19;14.20;;;9.83;;
13698;SDS011;6921;53.642;9.956;2022-12-11T11:56:26;14.13;;;8.97;;
13698;SDS011;6921;53.642;9.956;2022-12-11T11:58:34;13.17;;;9.07;;
13698;SDS011;6921;53.642;9.956;2022-12-11T12:00:39;13.87;;;9.33;;
13698;SDS011;6921;53.642;9.956;2022-12-11T12:02:42;12.57;;;8.77;;
13698;SDS011;6921;53.642;9.956;2022-12-11T12:04:47;14.10;;;9.63;;
13698;SDS011;6921;53.642;9.956;2022-12-11T12:06:58;14.60;;;9.40;;
13698;SDS011;6921;53.642;9.956;2022-12-11T12:09:12;13.67;;;8.80;;
13698;SDS011;6921;53.642;9.956;2022-12-11T12:11:21;15.70;;;9.07;;
13698;SDS011;6921;53.642;9.956;2022-12-11T12:13:28;14.37;;;9.77;;
13698;SDS011;6921;53.642;9.956;2022-12-11T12:15:53;13.80;;;8.67;;
13698;SDS011;6921;53.642;9.956;2022-12-11T12:18:00;15.40;;;9.43;;
13698;SDS011;6921;53.642;9.956;2022-12-11T12:20:08;12.30;;;8.57;;
13698;SDS011;6921;53.642;9.956;2022-12-11T12:22:29;16.57;;;9.83;;
13698;SDS011;6921;53.642;9.956;2022-12-11T12:24:39;15.90;;;9.67;;
13698;SDS011;6921;53.642;9.956;2022-12-11T12:26:50;16.60;;;9.50;;
13698;SDS011;6921;53.642;9.956;2022-12-11T12:28:57;18.23;;;9.67;;
13698;SDS011;6921;53.642;9.956;2022-12-11T12:31:04;13.93;;;8.73;;
13698;SDS011;6921;53.642;9.956;2022-12-11T12:33:13;13.00;;;8.50;;
13698;SDS011;6921;53.642;9.956;2022-12-11T12:35:26;16.00;;;9.00;;
13698;SDS011;6921;53.642;9.956;2022-12-11T12:37:39;15.50;;;9.10;;